sensor_id;sensor_type;location;lat;lon;timestamp;temperature;humidity
31809;DHT22;18379;48.208;-1.518;2023-06-19T00:03:22;17.00;99.90
31809;DHT22;18379;48.208;-1.518;2023-06-19T00:08:23;16.90;99.90
31809;DHT22;18379;48.208;-1.518;2023-06-19T00:13:24;16.90;99.90
31809;DHT22;18379;48.208;-1.518;2023-06-19T00:18:26;16.80;99.90
31809;DHT22;18379;48.208;-1.518;2023-06-19T00:23:26;16.80;99.90
31809;DHT22;18379;48.208;-1.518;2023-06-19T00:28:28;16.80;99.90
31809;DHT22;18379;48.208;-1.518;2023-06-19T00:33:29;16.80;99.90
31809;DHT22;18379;48.208;-1.518;2023-06-19T00:38:29;16.70;99.90
31809;DHT22;18379;48.208;-1.518;2023-06-19T00:43:33;16.70;99.90
31809;DHT22;18379;48.208;-1.518;2023-06-19T00:48:35;16.60;99.90
31809;DHT22;18379;48.208;-1.518;2023-06-19T00:53:37;16.60;99.90
31809;DHT22;18379;48.208;-1.518;2023-06-19T00:58:37;16.60;99.90
31809;DHT22;18379;48.208;-1.518;2023-06-19T01:03:39;16.50;99.90
31809;DHT22;18379;48.208;-1.518;2023-06-19T01:08:55;16.50;99.90
31809;DHT22;18379;48.208;-1.518;2023-06-19T01:14:14;16.50;99.90
31809;DHT22;18379;48.208;-1.518;2023-06-19T01:19:19;16.40;99.90
31809;DHT22;18379;48.208;-1.518;2023-06-19T01:24:20;16.40;99.90
31809;DHT22;18379;48.208;-1.518;2023-06-19T01:29:21;16.30;99.90
31809;DHT22;18379;48.208;-1.518;2023-06-19T01:34:22;16.20;99.90
31809;DHT22;18379;48.208;-1.518;2023-06-19T01:39:26;16.20;99.90
31809;DHT22;18379;48.208;-1.518;2023-06-19T01:44:27;16.10;99.90
31809;DHT22;18379;48.208;-1.518;2023-06-19T01:49:28;16.30;99.90
31809;DHT22;18379;48.208;-1.518;2023-06-19T01:54:29;16.40;99.90
31809;DHT22;18379;48.208;-1.518;2023-06-19T01:59:30;16.60;99.90
31809;DHT22;18379;48.208;-1.518;2023-06-19T02:04:31;16.70;99.90
31809;DHT22;18379;48.208;-1.518;2023-06-19T02:09:32;16.80;99.90
31809;DHT22;18379;48.208;-1.518;2023-06-19T02:14:33;16.90;99.90
31809;DHT22;18379;48.208;-1.518;2023-06-19T02:19:34;17.00;99.90
31809;DHT22;18379;48.208;-1.518;2023-06-19T02:24:35;17.00;99.90
31809;DHT22;18379;48.208;-1.518;2023-06-19T02:29:37;17.20;99.90
31809;DHT22;18379;48.208;-1.518;2023-06-19T02:34:38;17.20;99.90
31809;DHT22;18379;48.208;-1.518;2023-06-19T02:39:39;17.20;99.90
31809;DHT22;18379;48.208;-1.518;2023-06-19T02:44:39;17.10;99.90
31809;DHT22;18379;48.208;-1.518;2023-06-19T02:49:40;17.00;99.90
31809;DHT22;18379;48.208;-1.518;2023-06-19T02:54:41;16.90;99.90
31809;DHT22;18379;48.208;-1.518;2023-06-19T02:59:43;16.80;99.90
31809;DHT22;18379;48.208;-1.518;2023-06-19T03:04:44;16.70;99.90
31809;DHT22;18379;48.208;-1.518;2023-06-19T03:09:45;16.60;99.90
31809;DHT22;18379;48.208;-1.518;2023-06-19T03:14:46;16.70;99.90
31809;DHT22;18379;48.208;-1.518;2023-06-19T03:19:46;16.70;99.90
31809;DHT22;18379;48.208;-1.518;2023-06-19T03:24:47;16.70;99.90
31809;DHT22;18379;48.208;-1.518;2023-06-19T03:29:48;16.70;99.90
31809;DHT22;18379;48.208;-1.518;2023-06-19T03:34:49;16.70;99.90
31809;DHT22;18379;48.208;-1.518;2023-06-19T03:39:50;16.80;99.90
31809;DHT22;18379;48.208;-1.518;2023-06-19T03:44:50;16.80;99.90
31809;DHT22;18379;48.208;-1.518;2023-06-19T03:49:51;17.00;99.90
31809;DHT22;18379;48.208;-1.518;2023-06-19T03:54:52;17.10;99.90
31809;DHT22;18379;48.208;-1.518;2023-06-19T03:59:52;17.20;99.90
31809;DHT22;18379;48.208;-1.518;2023-06-19T04:04:54;17.30;99.90
31809;DHT22;18379;48.208;-1.518;2023-06-19T04:09:55;17.30;99.90
31809;DHT22;18379;48.208;-1.518;2023-06-19T04:14:56;17.30;99.90
31809;DHT22;18379;48.208;-1.518;2023-06-19T04:19:57;17.30;99.90
31809;DHT22;18379;48.208;-1.518;2023-06-19T04:24:57;17.40;99.90
31809;DHT22;18379;48.208;-1.518;2023-06-19T04:29:58;17.30;99.90
31809;DHT22;18379;48.208;-1.518;2023-06-19T04:34:59;17.20;99.90
31809;DHT22;18379;48.208;-1.518;2023-06-19T04:40:00;17.20;99.90
31809;DHT22;18379;48.208;-1.518;2023-06-19T04:45:01;17.20;99.90
31809;DHT22;18379;48.208;-1.518;2023-06-19T04:50:01;17.20;99.90
31809;DHT22;18379;48.208;-1.518;2023-06-19T04:55:04;17.20;99.90
31809;DHT22;18379;48.208;-1.518;2023-06-19T05:00:06;17.40;99.90
31809;DHT22;18379;48.208;-1.518;2023-06-19T05:05:07;17.50;99.90
31809;DHT22;18379;48.208;-1.518;2023-06-19T05:10:09;17.60;99.90
31809;DHT22;18379;48.208;-1.518;2023-06-19T05:15:10;17.50;99.90
31809;DHT22;18379;48.208;-1.518;2023-06-19T05:20:12;17.50;99.90
31809;DHT22;18379;48.208;-1.518;2023-06-19T05:25:13;17.40;99.90
31809;DHT22;18379;48.208;-1.518;2023-06-19T05:30:14;17.50;99.90
31809;DHT22;18379;48.208;-1.518;2023-06-19T05:35:14;17.50;99.90
31809;DHT22;18379;48.208;-1.518;2023-06-19T05:40:15;17.60;99.90
31809;DHT22;18379;48.208;-1.518;2023-06-19T05:45:16;17.40;99.90
31809;DHT22;18379;48.208;-1.518;2023-06-19T05:50:17;17.40;99.90
31809;DHT22;18379;48.208;-1.518;2023-06-19T05:55:18;17.70;99.90
31809;DHT22;18379;48.208;-1.518;2023-06-19T06:00:19;17.70;99.90
31809;DHT22;18379;48.208;-1.518;2023-06-19T06:05:20;17.70;99.90
31809;DHT22;18379;48.208;-1.518;2023-06-19T06:10:22;17.70;99.90
31809;DHT22;18379;48.208;-1.518;2023-06-19T06:15:23;17.80;99.90
31809;DHT22;18379;48.208;-1.518;2023-06-19T06:20:24;17.80;99.90
31809;DHT22;18379;48.208;-1.518;2023-06-19T06:25:25;17.90;99.90
31809;DHT22;18379;48.208;-1.518;2023-06-19T06:30:26;18.00;99.90
31809;DHT22;18379;48.208;-1.518;2023-06-19T06:35:28;18.20;99.90
31809;DHT22;18379;48.208;-1.518;2023-06-19T06:40:29;18.20;99.90
31809;DHT22;18379;48.208;-1.518;2023-06-19T06:45:29;18.30;99.90
31809;DHT22;18379;48.208;-1.518;2023-06-19T06:50:30;18.50;99.90
31809;DHT22;18379;48.208;-1.518;2023-06-19T06:55:32;18.60;99.90
31809;DHT22;18379;48.208;-1.518;2023-06-19T07:00:33;18.60;99.90
31809;DHT22;18379;48.208;-1.518;2023-06-19T07:05:34;18.50;99.90
31809;DHT22;18379;48.208;-1.518;2023-06-19T07:10:34;18.50;99.90
31809;DHT22;18379;48.208;-1.518;2023-06-19T07:15:35;18.80;99.90
31809;DHT22;18379;48.208;-1.518;2023-06-19T07:20:36;19.10;99.90
31809;DHT22;18379;48.208;-1.518;2023-06-19T07:25:37;19.50;99.90
31809;DHT22;18379;48.208;-1.518;2023-06-19T07:30:38;19.70;99.90
31809;DHT22;18379;48.208;-1.518;2023-06-19T07:35:39;19.90;99.90
31809;DHT22;18379;48.208;-1.518;2023-06-19T07:40:40;19.60;99.90
31809;DHT22;18379;48.208;-1.518;2023-06-19T07:45:40;19.80;99.90
31809;DHT22;18379;48.208;-1.518;2023-06-19T07:50:41;20.10;99.90
31809;DHT22;18379;48.208;-1.518;2023-06-19T07:55:42;20.10;99.90
31809;DHT22;18379;48.208;-1.518;2023-06-19T08:00:43;20.30;99.90
31809;DHT22;18379;48.208;-1.518;2023-06-19T08:05:44;20.40;99.90
31809;DHT22;18379;48.208;-1.518;2023-06-19T08:10:45;20.30;99.90
31809;DHT22;18379;48.208;-1.518;2023-06-19T08:15:45;20.40;99.90
31809;DHT22;18379;48.208;-1.518;2023-06-19T08:20:46;21.00;99.90
31809;DHT22;18379;48.208;-1.518;2023-06-19T08:25:47;21.20;99.90
31809;DHT22;18379;48.208;-1.518;2023-06-19T08:30:48;21.00;99.90
31809;DHT22;18379;48.208;-1.518;2023-06-19T08:35:49;20.70;99.90
31809;DHT22;18379;48.208;-1.518;2023-06-19T08:40:49;20.80;99.90
31809;DHT22;18379;48.208;-1.518;2023-06-19T08:46:17;21.10;99.90
31809;DHT22;18379;48.208;-1.518;2023-06-19T08:51:18;21.30;99.90
31809;DHT22;18379;48.208;-1.518;2023-06-19T08:56:18;21.70;99.90
31809;DHT22;18379;48.208;-1.518;2023-06-19T09:01:19;22.10;99.90
31809;DHT22;18379;48.208;-1.518;2023-06-19T09:06:20;22.10;99.90
31809;DHT22;18379;48.208;-1.518;2023-06-19T09:11:21;22.20;99.90
31809;DHT22;18379;48.208;-1.518;2023-06-19T09:16:22;22.40;99.90
31809;DHT22;18379;48.208;-1.518;2023-06-19T09:21:24;22.40;99.90
31809;DHT22;18379;48.208;-1.518;2023-06-19T09:26:25;22.40;99.90
31809;DHT22;18379;48.208;-1.518;2023-06-19T09:31:33;22.10;99.90
31809;DHT22;18379;48.208;-1.518;2023-06-19T09:36:35;22.40;99.90
31809;DHT22;18379;48.208;-1.518;2023-06-19T09:41:37;22.70;99.90
31809;DHT22;18379;48.208;-1.518;2023-06-19T09:46:41;23.00;99.90
31809;DHT22;18379;48.208;-1.518;2023-06-19T09:51:44;23.30;99.90
31809;DHT22;18379;48.208;-1.518;2023-06-19T09:56:45;23.60;99.90
31809;DHT22;18379;48.208;-1.518;2023-06-19T10:01:51;23.30;99.90
31809;DHT22;18379;48.208;-1.518;2023-06-19T10:06:52;23.60;99.90
31809;DHT22;18379;48.208;-1.518;2023-06-19T10:11:55;23.90;99.90
31809;DHT22;18379;48.208;-1.518;2023-06-19T10:16:56;24.20;99.90
31809;DHT22;18379;48.208;-1.518;2023-06-19T10:21:56;24.20;99.90
31809;DHT22;18379;48.208;-1.518;2023-06-19T10:27:01;24.40;99.90
31809;DHT22;18379;48.208;-1.518;2023-06-19T10:32:03;24.40;99.90
31809;DHT22;18379;48.208;-1.518;2023-06-19T10:37:04;24.40;99.90
31809;DHT22;18379;48.208;-1.518;2023-06-19T10:42:06;24.30;99.90
31809;DHT22;18379;48.208;-1.518;2023-06-19T10:47:08;24.40;99.90
31809;DHT22;18379;48.208;-1.518;2023-06-19T10:52:09;24.90;99.90
31809;DHT22;18379;48.208;-1.518;2023-06-19T10:57:10;25.00;99.90
31809;DHT22;18379;48.208;-1.518;2023-06-19T11:02:10;25.30;99.90
31809;DHT22;18379;48.208;-1.518;2023-06-19T11:07:12;25.00;99.90
31809;DHT22;18379;48.208;-1.518;2023-06-19T11:12:19;24.80;99.90
31809;DHT22;18379;48.208;-1.518;2023-06-19T11:17:20;24.60;99.90
31809;DHT22;18379;48.208;-1.518;2023-06-19T11:22:40;24.90;99.90
31809;DHT22;18379;48.208;-1.518;2023-06-19T11:27:41;25.40;99.90
31809;DHT22;18379;48.208;-1.518;2023-06-19T11:32:43;25.80;99.90
31809;DHT22;18379;48.208;-1.518;2023-06-19T11:37:45;26.40;99.90
31809;DHT22;18379;48.208;-1.518;2023-06-19T11:42:47;26.60;99.90
31809;DHT22;18379;48.208;-1.518;2023-06-19T11:47:49;26.50;99.90
31809;DHT22;18379;48.208;-1.518;2023-06-19T11:52:50;26.50;99.90
31809;DHT22;18379;48.208;-1.518;2023-06-19T11:57:51;26.20;99.90
31809;DHT22;18379;48.208;-1.518;2023-06-19T12:02:52;26.10;99.90
31809;DHT22;18379;48.208;-1.518;2023-06-19T12:07:54;26.60;99.90
31809;DHT22;18379;48.208;-1.518;2023-06-19T12:12:55;26.70;99.90
31809;DHT22;18379;48.208;-1.518;2023-06-19T12:17:56;26.30;99.90
31809;DHT22;18379;48.208;-1.518;2023-06-19T12:22:58;26.60;99.90
31809;DHT22;18379;48.208;-1.518;2023-06-19T12:27:59;27.10;99.90
31809;DHT22;18379;48.208;-1.518;2023-06-19T12:33:00;27.70;99.90
31809;DHT22;18379;48.208;-1.518;2023-06-19T12:38:01;28.20;99.90
31809;DHT22;18379;48.208;-1.518;2023-06-19T12:43:02;28.30;99.90
31809;DHT22;18379;48.208;-1.518;2023-06-19T12:48:04;27.90;99.90
31809;DHT22;18379;48.208;-1.518;2023-06-19T12:53:05;27.80;99.90
31809;DHT22;18379;48.208;-1.518;2023-06-19T12:58:05;27.30;99.90
31809;DHT22;18379;48.208;-1.518;2023-06-19T13:03:06;27.70;99.90
31809;DHT22;18379;48.208;-1.518;2023-06-19T13:08:07;28.10;99.90
31809;DHT22;18379;48.208;-1.518;2023-06-19T13:13:08;28.50;99.90
31809;DHT22;18379;48.208;-1.518;2023-06-19T13:18:10;28.10;99.90
31809;DHT22;18379;48.208;-1.518;2023-06-19T13:23:11;27.60;99.90
31809;DHT22;18379;48.208;-1.518;2023-06-19T13:28:12;27.50;99.90
31809;DHT22;18379;48.208;-1.518;2023-06-19T13:33:13;28.10;99.90
31809;DHT22;18379;48.208;-1.518;2023-06-19T13:38:14;28.60;99.90
31809;DHT22;18379;48.208;-1.518;2023-06-19T13:43:16;28.20;99.90
31809;DHT22;18379;48.208;-1.518;2023-06-19T13:48:17;28.40;99.90
31809;DHT22;18379;48.208;-1.518;2023-06-19T13:53:17;28.30;99.90
31809;DHT22;18379;48.208;-1.518;2023-06-19T13:58:19;28.10;99.90
31809;DHT22;18379;48.208;-1.518;2023-06-19T14:03:19;28.50;99.90
31809;DHT22;18379;48.208;-1.518;2023-06-19T14:08:20;29.40;99.90
31809;DHT22;18379;48.208;-1.518;2023-06-19T14:13:21;29.20;99.90
31809;DHT22;18379;48.208;-1.518;2023-06-19T14:18:22;28.60;99.90
31809;DHT22;18379;48.208;-1.518;2023-06-19T14:23:23;29.30;99.90
31809;DHT22;18379;48.208;-1.518;2023-06-19T14:28:24;29.80;99.90
31809;DHT22;18379;48.208;-1.518;2023-06-19T14:33:25;30.20;99.90
31809;DHT22;18379;48.208;-1.518;2023-06-19T14:38:26;29.60;99.90
31809;DHT22;18379;48.208;-1.518;2023-06-19T14:43:31;28.30;99.90
31809;DHT22;18379;48.208;-1.518;2023-06-19T14:48:33;27.90;99.90
31809;DHT22;18379;48.208;-1.518;2023-06-19T14:53:34;27.90;99.90
31809;DHT22;18379;48.208;-1.518;2023-06-19T14:58:34;28.70;99.90
31809;DHT22;18379;48.208;-1.518;2023-06-19T15:03:36;28.70;99.90
31809;DHT22;18379;48.208;-1.518;2023-06-19T15:08:38;28.10;99.90
31809;DHT22;18379;48.208;-1.518;2023-06-19T15:13:39;27.40;99.90
31809;DHT22;18379;48.208;-1.518;2023-06-19T15:18:40;27.40;99.90
31809;DHT22;18379;48.208;-1.518;2023-06-19T15:23:41;28.00;99.90
31809;DHT22;18379;48.208;-1.518;2023-06-19T15:28:42;29.00;99.90
31809;DHT22;18379;48.208;-1.518;2023-06-19T15:33:44;31.10;99.90
31809;DHT22;18379;48.208;-1.518;2023-06-19T15:38:45;31.60;99.90
31809;DHT22;18379;48.208;-1.518;2023-06-19T15:43:49;31.80;99.90
31809;DHT22;18379;48.208;-1.518;2023-06-19T15:48:50;31.60;99.90
31809;DHT22;18379;48.208;-1.518;2023-06-19T15:53:52;31.20;99.90
31809;DHT22;18379;48.208;-1.518;2023-06-19T15:58:54;29.90;99.90
31809;DHT22;18379;48.208;-1.518;2023-06-19T16:03:56;29.10;99.90
31809;DHT22;18379;48.208;-1.518;2023-06-19T16:08:57;29.00;99.90
31809;DHT22;18379;48.208;-1.518;2023-06-19T16:13:58;31.30;99.90
31809;DHT22;18379;48.208;-1.518;2023-06-19T16:19:00;32.80;99.90
31809;DHT22;18379;48.208;-1.518;2023-06-19T16:24:03;32.50;99.90
31809;DHT22;18379;48.208;-1.518;2023-06-19T16:29:04;31.60;99.90
31809;DHT22;18379;48.208;-1.518;2023-06-19T16:34:05;31.80;99.90
31809;DHT22;18379;48.208;-1.518;2023-06-19T16:39:06;30.80;99.90
31809;DHT22;18379;48.208;-1.518;2023-06-19T16:44:10;30.30;99.90
31809;DHT22;18379;48.208;-1.518;2023-06-19T16:49:11;31.50;99.90
31809;DHT22;18379;48.208;-1.518;2023-06-19T16:54:11;31.40;99.90
31809;DHT22;18379;48.208;-1.518;2023-06-19T16:59:12;31.10;99.90
31809;DHT22;18379;48.208;-1.518;2023-06-19T17:04:13;32.30;99.90
31809;DHT22;18379;48.208;-1.518;2023-06-19T17:09:14;33.40;99.90
31809;DHT22;18379;48.208;-1.518;2023-06-19T17:14:14;33.90;99.90
31809;DHT22;18379;48.208;-1.518;2023-06-19T17:19:15;34.00;99.90
31809;DHT22;18379;48.208;-1.518;2023-06-19T17:24:16;33.40;99.90
31809;DHT22;18379;48.208;-1.518;2023-06-19T17:29:17;33.50;99.90
31809;DHT22;18379;48.208;-1.518;2023-06-19T17:34:18;33.60;99.90
31809;DHT22;18379;48.208;-1.518;2023-06-19T17:39:18;33.20;99.90
31809;DHT22;18379;48.208;-1.518;2023-06-19T17:44:20;31.90;99.90
31809;DHT22;18379;48.208;-1.518;2023-06-19T17:49:27;31.20;99.90
31809;DHT22;18379;48.208;-1.518;2023-06-19T17:54:28;30.90;99.90
31809;DHT22;18379;48.208;-1.518;2023-06-19T17:59:29;30.60;99.90
31809;DHT22;18379;48.208;-1.518;2023-06-19T18:04:32;30.10;99.90
31809;DHT22;18379;48.208;-1.518;2023-06-19T18:09:33;29.40;99.90
31809;DHT22;18379;48.208;-1.518;2023-06-19T18:14:34;29.00;99.90
31809;DHT22;18379;48.208;-1.518;2023-06-19T18:19:35;29.00;99.90
31809;DHT22;18379;48.208;-1.518;2023-06-19T18:24:37;29.00;99.90
31809;DHT22;18379;48.208;-1.518;2023-06-19T18:29:38;29.00;99.90
31809;DHT22;18379;48.208;-1.518;2023-06-19T18:34:38;28.40;99.90
31809;DHT22;18379;48.208;-1.518;2023-06-19T18:39:39;27.90;99.90
31809;DHT22;18379;48.208;-1.518;2023-06-19T18:44:41;27.60;99.90
31809;DHT22;18379;48.208;-1.518;2023-06-19T18:49:42;27.30;99.90
31809;DHT22;18379;48.208;-1.518;2023-06-19T18:54:43;27.10;99.90
31809;DHT22;18379;48.208;-1.518;2023-06-19T18:59:44;26.80;99.90
31809;DHT22;18379;48.208;-1.518;2023-06-19T19:04:45;26.70;99.90
31809;DHT22;18379;48.208;-1.518;2023-06-19T19:09:46;26.50;99.90
31809;DHT22;18379;48.208;-1.518;2023-06-19T19:14:46;26.10;99.90
31809;DHT22;18379;48.208;-1.518;2023-06-19T19:19:47;25.80;99.90
31809;DHT22;18379;48.208;-1.518;2023-06-19T19:24:48;25.50;99.90
31809;DHT22;18379;48.208;-1.518;2023-06-19T19:29:50;25.20;99.90
31809;DHT22;18379;48.208;-1.518;2023-06-19T19:34:51;25.20;99.90
31809;DHT22;18379;48.208;-1.518;2023-06-19T19:39:55;25.10;99.90
31809;DHT22;18379;48.208;-1.518;2023-06-19T19:44:59;25.00;99.90
31809;DHT22;18379;48.208;-1.518;2023-06-19T19:50:00;24.80;99.90
31809;DHT22;18379;48.208;-1.518;2023-06-19T19:55:01;24.80;99.90
31809;DHT22;18379;48.208;-1.518;2023-06-19T20:00:02;24.70;99.90
31809;DHT22;18379;48.208;-1.518;2023-06-19T20:05:03;24.40;99.90
31809;DHT22;18379;48.208;-1.518;2023-06-19T20:10:05;24.20;99.90
31809;DHT22;18379;48.208;-1.518;2023-06-19T20:15:07;24.10;99.90
31809;DHT22;18379;48.208;-1.518;2023-06-19T20:20:08;23.80;99.90
31809;DHT22;18379;48.208;-1.518;2023-06-19T20:25:09;23.70;99.90
31809;DHT22;18379;48.208;-1.518;2023-06-19T20:30:10;23.60;99.90
31809;DHT22;18379;48.208;-1.518;2023-06-19T20:35:11;23.50;99.90
31809;DHT22;18379;48.208;-1.518;2023-06-19T20:40:12;23.30;99.90
31809;DHT22;18379;48.208;-1.518;2023-06-19T20:45:13;23.30;99.90
31809;DHT22;18379;48.208;-1.518;2023-06-19T20:50:14;23.20;99.90
31809;DHT22;18379;48.208;-1.518;2023-06-19T20:55:15;23.10;99.90
31809;DHT22;18379;48.208;-1.518;2023-06-19T21:00:17;23.10;99.90
31809;DHT22;18379;48.208;-1.518;2023-06-19T21:05:19;23.10;99.90
31809;DHT22;18379;48.208;-1.518;2023-06-19T21:10:20;23.10;99.90
31809;DHT22;18379;48.208;-1.518;2023-06-19T21:15:22;23.10;99.90
31809;DHT22;18379;48.208;-1.518;2023-06-19T21:20:23;23.10;99.90
31809;DHT22;18379;48.208;-1.518;2023-06-19T21:25:24;23.10;99.90
31809;DHT22;18379;48.208;-1.518;2023-06-19T21:30:25;23.10;99.90
31809;DHT22;18379;48.208;-1.518;2023-06-19T21:35:25;23.00;99.90
31809;DHT22;18379;48.208;-1.518;2023-06-19T21:40:26;23.00;99.90
31809;DHT22;18379;48.208;-1.518;2023-06-19T21:45:27;22.90;99.90
31809;DHT22;18379;48.208;-1.518;2023-06-19T21:50:28;22.90;99.90
31809;DHT22;18379;48.208;-1.518;2023-06-19T21:55:28;22.90;99.90
31809;DHT22;18379;48.208;-1.518;2023-06-19T22:00:29;22.80;99.90
31809;DHT22;18379;48.208;-1.518;2023-06-19T22:05:30;22.80;99.90
31809;DHT22;18379;48.208;-1.518;2023-06-19T22:10:31;22.80;99.90
31809;DHT22;18379;48.208;-1.518;2023-06-19T22:15:32;22.60;99.90
31809;DHT22;18379;48.208;-1.518;2023-06-19T22:20:33;22.50;99.90
31809;DHT22;18379;48.208;-1.518;2023-06-19T22:25:34;22.40;99.90
31809;DHT22;18379;48.208;-1.518;2023-06-19T22:30:34;22.40;99.90
31809;DHT22;18379;48.208;-1.518;2023-06-19T22:35:35;22.40;99.90
31809;DHT22;18379;48.208;-1.518;2023-06-19T22:40:36;22.30;99.90
31809;DHT22;18379;48.208;-1.518;2023-06-19T22:45:37;22.40;99.90
31809;DHT22;18379;48.208;-1.518;2023-06-19T22:50:37;22.30;99.90
31809;DHT22;18379;48.208;-1.518;2023-06-19T22:55:38;22.30;99.90
31809;DHT22;18379;48.208;-1.518;2023-06-19T23:05:46;22.20;99.90
31809;DHT22;18379;48.208;-1.518;2023-06-19T23:10:47;22.20;99.90
31809;DHT22;18379;48.208;-1.518;2023-06-19T23:15:48;22.30;99.90
31809;DHT22;18379;48.208;-1.518;2023-06-19T23:20:49;22.10;99.90
31809;DHT22;18379;48.208;-1.518;2023-06-19T23:25:50;22.10;99.90
31809;DHT22;18379;48.208;-1.518;2023-06-19T23:30:51;22.10;99.90
31809;DHT22;18379;48.208;-1.518;2023-06-19T23:35:53;22.00;99.90
31809;DHT22;18379;48.208;-1.518;2023-06-19T23:40:56;21.90;99.90
31809;DHT22;18379;48.208;-1.518;2023-06-19T23:45:57;21.90;99.90
31809;DHT22;18379;48.208;-1.518;2023-06-19T23:50:58;21.80;99.90
31809;DHT22;18379;48.208;-1.518;2023-06-19T23:55:59;21.80;99.90
